Nearby METAR Reports

 

KGEU - Glendale, Arizona, USA
Distance from station: S 3mi, 4km
Updated: Wed, 17-Jul-2019 7:47pm MST
NOT Current
Mostly cloudy
Mostly cloudy
 Wind from SSW
Wind: SSW 9 mph , 15 km/h
Temperature: 100°F , 38°C
Dew Point: 57°F , 14°C
Humidity: 24%
Barometer: 29.82 inHg , 1009.8 hPa
Clouds: Mostly cloudy
Visibility: 10 miles , 16 km
Cloud details: Mostly cloudy 9000 ft
Mostly cloudy 16000 ft
2019/07/18 02:47 KGEU 180247Z 20008KT 10SM BKN090 BKN160 38/14 A2982 RMK LAST
KLUF - Luke Afb/Glendal, Arizona, USA
Distance from station: SW 5mi, 8km
Updated: Wed, 17-Jul-2019 9:56pm MST
Clear
Clear
 Wind from WSW
Wind: WSW 12 mph , 19 km/h
Temperature: 95°F , 35°C
Dew Point: 57°F , 14°C
Humidity: 28%
Barometer: 29.84 inHg , 1010.5 hPa
Clouds: Clear
Visibility: 10 miles , 16 km
2019/07/18 04:56 KLUF 180456Z AUTO 24010KT 10SM CLR 35/14 A2984 RMK AO2 SLP088 T03510138
 
KGYR - Goodyear Municip, Arizona, USA
Distance from station: SSW 11mi, 18km
Updated: Wed, 17-Jul-2019 8:47pm MST
NOT Current
Mostly cloudy
Mostly cloudy
 Wind from SSW
Wind: SSW 8 mph , 13 km/h
Temperature: 97°F , 36°C
Dew Point: 61°F , 16°C
Humidity: 30%
Barometer: 29.83 inHg , 1010.2 hPa
Clouds: Mostly cloudy
Visibility: 10 miles , 16 km
Cloud details: Partly cloudy 18000 ft
Mostly cloudy 25000 ft
2019/07/18 03:47 KGYR 180347Z 21007KT 10SM SCT180 BKN250 36/16 A2983 RMK LAST
KDVT - Phoenix/Deer Vly, Arizona, USA
Distance from station: ENE 16mi, 26km
Updated: Wed, 17-Jul-2019 9:53pm MST
Clear
Clear
 Wind from SW
Wind: SW 8 mph , 13 km/h
Temperature: 95°F , 35°C
Dew Point: 57°F , 14°C
Humidity: 28%
Barometer: 29.88 inHg , 1011.9 hPa
Clouds: Clear
Visibility: 10 miles , 16 km
2019/07/18 04:53 KDVT 180453Z AUTO 23007KT 10SM CLR 35/14 A2988 RMK AO2 SLP089 T03500139
 
KPHX - Phoenix/Sky Hrbr, Arizona, USA
Distance from station: ESE 19mi, 31km
Updated: Wed, 17-Jul-2019 9:51pm MST
Mostly cloudy
Mostly cloudy
 Wind from WSW
Wind: WSW 8 mph , 13 km/h
Temperature: 97°F , 36°C
Dew Point: 55°F , 13°C
Humidity: 25%
Barometer: 29.84 inHg , 1010.5 hPa
Clouds: Mostly cloudy
Visibility: 10 miles , 16 km
Cloud details: Partly cloudy 25000 ft
Mostly cloudy 29000 ft
2019/07/18 04:51 KPHX 180451Z 25007KT 10SM SCT250 BKN290 36/13 A2984 RMK AO2 SLP082 T03610128
KSDL - Scottsdale, Arizona, USA
Distance from station: E 23mi, 37km
Updated: Wed, 17-Jul-2019 9:53pm MST
Clear
Clear
 Wind from W
Wind: W 8 mph , 13 km/h
Temperature: 97°F , 36°C
Dew Point: 55°F , 13°C
Humidity: 25%
Barometer: 29.89 inHg , 1012.2 hPa
Clouds: Clear
Visibility: 10 miles , 16 km
2019/07/18 04:53 KSDL 180453Z AUTO 26007KT 10SM CLR 36/13 A2989 RMK AO2 SLP092 T03560133
 
KBXK - Buckeye, Arizona, USA
Distance from station: WSW 24mi, 39km
Updated: Wed, 17-Jul-2019 10:35pm MST
Clear
Clear
 Wind from SSW
Wind: SSW 9 mph , 15 km/h
Temperature: 88°F , 31°C
Dew Point: 57°F , 14°C
Humidity: 35%
Barometer: 29.88 inHg , 1011.9 hPa
Clouds: Clear
Visibility: 9 miles , 14 km
2019/07/18 05:35 KBXK 180535Z AUTO 21008KT 9SM CLR 31/14 A2988 RMK A01
KFFZ - Mesa/Falcon Fld, Arizona, USA
Distance from station: E 35mi, 56km
Updated: Wed, 17-Jul-2019 9:54pm MST
Clear
Clear
 Wind from calm
Wind: Calm
Temperature: 97°F , 36°C
Dew Point: 57°F , 14°C
Humidity: 27%
Barometer: 29.87 inHg , 1011.5 hPa
Clouds: Clear
Visibility: 10 miles , 16 km
2019/07/18 04:54 KFFZ 180454Z AUTO 00000KT 10SM CLR 36/14 A2987 RMK AO2 SLP087 T03560144
 
KIWA - Chandler/Mesa, Arizona, USA
Distance from station: ESE 42mi, 68km
Updated: Wed, 17-Jul-2019 9:50pm MST
Mostly cloudy
Mostly cloudy
 Wind from W
Wind: W 7 mph , 11 km/h
Temperature: 97°F , 36°C
Dew Point: 57°F , 14°C
Humidity: 27%
Barometer: 29.89 inHg , 1012.2 hPa
Clouds: Mostly cloudy
Visibility: 10 miles , 16 km
Cloud details: Mostly cloudy 18000 ft
2019/07/18 04:50 KIWA 180450Z 28006KT 10SM BKN180 36/14 A2989
KCGZ - Casa Granda, Arizona, USA
Distance from station: SE 53mi, 85km
Updated: Wed, 17-Jul-2019 9:56pm MST
Clear
Clear
 Wind from W
Wind: W 13 mph , 20 km/h
Temperature: 93°F , 34°C
Dew Point: 57°F , 14°C
Humidity: 30%
Barometer: 29.89 inHg , 1012.2 hPa
Clouds: Clear
Visibility: 10 miles , 16 km
2019/07/18 04:56 KCGZ 180456Z AUTO 28011KT 10SM CLR 34/14 A2989 RMK AO2 SLP103 T03440139
 
KGXF - Gila Bend (aaf), Arizona, USA
Distance from station: SSW 54mi, 87km
Updated: Wed, 17-Jul-2019 9:58pm MST
Clear
Clear
 Wind from SW
Wind: SW 8 mph , 13 km/h
Temperature: 93°F , 34°C
Dew Point: 57°F , 14°C
Humidity: 30%
Barometer: 29.85 inHg , 1010.8 hPa
Clouds: Clear
Visibility: 10 miles , 16 km
2019/07/18 04:58 KGXF 180458Z AUTO 23007KT 10SM CLR 34/14 A2985 RMK AO2 SLP093 T03380143 $
KPAN - Payson, Arizona, USA
Distance from station: NE 73mi, 117km
Updated: Wed, 17-Jul-2019 10:35pm MST
Clear
Clear
 Wind from calm
Wind: Calm
Temperature: 77°F , 25°C
Dew Point: 54°F , 12°C
Humidity: 44%
Barometer: 30.20 inHg , 1022.7 hPa
Clouds: Clear
Visibility: 10 miles , 16 km
2019/07/18 05:35 KPAN 180535Z AUTO 00000KT 10SM CLR 25/12 A3020 RMK AO2
 
KPRC - Prescott, Arizona, USA
Distance from station: N 75mi, 121km
Updated: Wed, 17-Jul-2019 9:53pm MST
Clear
Clear
 Wind from S
Wind: S 7 mph , 11 km/h
Temperature: 77°F , 25°C
Dew Point: 52°F , 11°C
Humidity: 42%
Barometer: 30.17 inHg , 1021.7 hPa
Clouds: Clear
Visibility: 10 miles , 16 km
2019/07/18 04:53 KPRC 180453Z AUTO 19006KT 10SM CLR 25/11 A3017 RMK AO2 SLP121 T02500111
KSEZ - Sedona, Arizona, USA
Distance from station: NNE 93mi, 150km
Updated: Wed, 17-Jul-2019 10:35pm MST
Clear
Clear
 Wind from S
Wind: S 6 mph , 9 km/h
Temperature: 81°F , 27°C
Dew Point: 52°F , 11°C
Humidity: 37%
Barometer: 30.15 inHg , 1021 hPa
Clouds: Clear
Visibility: 10 miles , 16 km
2019/07/18 05:35 KSEZ 180535Z AUTO 17005KT 10SM CLR 27/11 A3015 RMK AO2
 
KFLG - Flagstaff, Arizona, USA
Distance from station: NNE 114mi, 184km
Updated: Wed, 17-Jul-2019 9:57pm MST
Clear
Clear
 Wind from SSW
Wind: SSW 6 mph , 9 km/h
Temperature: 66°F , 19°C
Dew Point: 45°F , 7°C
Humidity: 46%
Barometer: 30.32 inHg , 1026.8 hPa
Clouds: Clear
Visibility: 10 miles , 16 km
2019/07/18 04:57 KFLG 180457Z AUTO 20005KT 10SM CLR 19/07 A3032 RMK AO2 SLP147 T01940072 $
KRYN - Tucson/Ryan Fld, Arizona, USA
Distance from station: SE 118mi, 190km
Updated: Wed, 17-Jul-2019 7:45pm MST
NOT Current
Clear
Clear
 Wind from N
Wind: N 7 mph , 11 km/h
Temperature: 97°F , 36°C
Dew Point: 55°F , 13°C
Humidity: 25%
Barometer: 29.94 inHg , 1013.9 hPa
Clouds: Clear
Visibility: 10 miles , 16 km
2019/07/18 02:45 KRYN 180245Z 35006KT 10SM CLR 36/13 A2994 RMK LAST
 
KTUS - Tucson, Arizona, USA
Distance from station: SE 127mi, 204km
Updated: Wed, 17-Jul-2019 9:53pm MST
Few Clouds
Few Clouds
 Wind from S
Wind: S 9 mph , 15 km/h
Temperature: 88°F , 31°C
Dew Point: 57°F , 14°C
Humidity: 35%
Barometer: 30.02 inHg , 1016.6 hPa
Clouds: Few Clouds
Visibility: 10 miles , 16 km
Cloud details: Few Clouds 10000 ft
2019/07/18 04:53 KTUS 180453Z 18008KT 10SM FEW100 31/14 A3002 RMK AO2 LTG DSNT SE AND S SLP111 T03060139
KDMA - Davis/Tucson, Arizona, USA
Distance from station: SE 128mi, 206km
Updated: Wed, 17-Jul-2019 9:56pm MST
Few Clouds
Few Clouds
 Wind from SSE
Wind: SSE 16 mph , 26 km/h
Temperature: 86°F , 30°C
Dew Point: 57°F , 14°C
Humidity: 38%
Barometer: 30.01 inHg , 1016.3 hPa
Clouds: Few Clouds
Visibility: 10 miles , 16 km
Cloud details: Few Clouds 11000 ft
2019/07/18 04:56 KDMA 180456Z AUTO 16014KT 10SM FEW110 30/14 A3001 RMK AO2 LTG DSNT S SLP115 T03010138 $
 
KINW - Winslow, Arizona, USA
Distance from station: NE 136mi, 219km
Updated: Wed, 17-Jul-2019 9:56pm MST
Clear
Clear
 Wind from SW
Wind: SW 10 mph , 17 km/h
Temperature: 81°F , 27°C
Dew Point: 48°F , 9°C
Humidity: 32%
Barometer: 30.13 inHg , 1020.3 hPa
Clouds: Clear
Visibility: 10 miles , 16 km
2019/07/18 04:56 KINW 180456Z AUTO 22009KT 10SM CLR 27/09 A3013 RMK AO2 SLP108 T02670089
KHII - Lake Havasu City, Arizona, USA
Distance from station: WNW 136mi, 220km
Updated: Wed, 17-Jul-2019 10:30pm MST
Mostly cloudy
Mostly cloudy
 Wind from SSE
Wind: SSE 9 mph , 15 km/h
Temperature: 99°F , 37°C
Dew Point: 48°F , 9°C
Humidity: 18%
Barometer: 29.80 inHg , 1009.1 hPa
Clouds: Mostly cloudy
Visibility: 10 miles , 16 km
Cloud details: Partly cloudy 7000 ft
Mostly cloudy 11000 ft
2019/07/18 05:30 KHII 180530Z AUTO 15008KT 10SM SCT070 BKN110 37/09 A2980 RMK AO2